Terminal Aerodrome Forecast
Issued by NWS

Home | Current Version | Previous Version | Text Only | Print | Product List | Glossary On
Versions: 1 2 3 4 5 6 7 8 9 10 11 12
000
FTUS42 TJSJ 052344
TAFJPS
TAF
TJPS 052344Z 0600/0624 12010G20KT P6SM FEW025
     FM060400 VRB06KT P6SM FEW050
     FM061330 13012G25KT P6SM FEW030 FEW050
     FM062330 05005KT P6SM SKC
      AMD NOT SKED TIL 060300=

USA.gov is the U.S. government's official web portal to all federal, state and local government web resources and services.